YGB weather

Texada Gillies Bay Airport
Texada, British Columbia, Canada

Public forecast

Using degrees Celsius for public forecast. Weather courtesy of forecast.io.

METAR (pilot weather report)

Closest report is Powell River Airport, 8.4 nm (15.6 km) N. Retrieved 2019/07/22 17:00 UTC (40 minutes ago):

CYPW 221700Z 12011KT 30SM SCT100 SCT250 21/14 A2998 RMK AC4CI1 CI TR SLP154 DENSITY ALT 1200FT

TAF (pilot weather forecast)

Closest forecast is Comox Airport, 14.4 nm (26.6 km) W. Retrieved 2019/07/22 12:42 UTC (5 hours ago):

TAF TAF CYQQ 221139Z 2212/2312 VRB03KT P6SM FEW100 SCT250 BECMG 2217/2219 14015KT FM230000 18010KT P6SM FEW050 FM230700 30005KT P6SM SCT050 RMK NXT FCST BY 221800Z